createdAt,value
2022-10-07T12:24:59.399Z,21.7
2022-10-07T12:26:03.287Z,22.6
2022-10-07T12:27:06.733Z,23
2022-10-07T12:28:09.930Z,23.1
2022-10-07T12:29:12.773Z,20.9
2022-10-07T12:30:16.804Z,21.3
2022-10-07T12:31:19.945Z,20.4
2022-10-07T12:32:22.892Z,19.7
2022-10-07T12:33:25.790Z,19.8
2022-10-07T12:34:28.318Z,19.3
2022-10-07T12:35:31.223Z,19.3
2022-10-07T12:36:34.647Z,19
2022-10-07T12:37:37.989Z,19.3
2022-10-07T12:38:41.441Z,19.5
2022-10-07T12:39:44.315Z,19.9
2022-10-07T12:40:47.868Z,19.3
2022-10-07T12:41:51.632Z,18.8
2022-10-07T12:42:55.070Z,19.1
2022-10-07T12:43:58.806Z,19.5
2022-10-07T12:45:01.409Z,19.5
2022-10-07T12:46:05.653Z,19.2
2022-10-07T12:47:09.310Z,19.5
2022-10-07T12:48:12.497Z,18.8
2022-10-07T12:49:15.657Z,18.8
2022-10-07T12:50:19.177Z,18.5
2022-10-07T12:51:22.554Z,18.8
2022-10-07T12:52:25.991Z,19.2
2022-10-07T12:53:28.997Z,19.4
2022-10-07T12:54:32.429Z,19.8
2022-10-07T12:55:36.223Z,19.1
2022-10-07T12:56:39.764Z,19.2
2022-10-07T12:57:43.860Z,19.5
2022-10-07T12:58:47.515Z,19.5
2022-10-07T12:59:50.842Z,19.3
2022-10-07T13:00:54.220Z,18.9
2022-10-07T13:01:58.361Z,19.5
2022-10-07T13:03:01.322Z,19.4
2022-10-07T13:04:04.033Z,19.7
2022-10-07T13:05:07.207Z,19.6
2022-10-07T13:06:10.461Z,19.3
2022-10-07T13:07:12.624Z,19.4
2022-10-07T13:08:16.051Z,18.9
2022-10-07T13:09:19.331Z,18.9
2022-10-07T13:10:21.775Z,19
2022-10-07T13:11:24.672Z,18.7
2022-10-07T13:12:28.516Z,18.6
2022-10-07T13:13:32.027Z,18.8
2022-10-07T13:14:35.846Z,19.1
2022-10-07T13:15:38.917Z,18.6
2022-10-07T13:16:42.422Z,18.6
2022-10-07T13:17:45.389Z,18.7
2022-10-07T13:18:49.045Z,18.9
2022-10-07T13:19:52.248Z,18.6
2022-10-07T13:20:55.433Z,18.3
2022-10-07T13:21:58.151Z,18.8
2022-10-07T13:23:01.308Z,19.1
2022-10-07T13:24:04.662Z,19
2022-10-07T13:25:08.350Z,18.6
2022-10-07T13:26:10.948Z,18.8
2022-10-07T13:27:13.456Z,18.5
2022-10-07T13:28:17.193Z,18.5
2022-10-07T13:29:21.715Z,18.4
2022-10-07T13:30:24.896Z,18.5
2022-10-07T13:31:28.378Z,18.6
2022-10-07T13:32:31.891Z,18.6
2022-10-07T13:33:35.596Z,18.5
2022-10-07T13:34:39.039Z,18.6
2022-10-07T13:35:41.827Z,18.5
2022-10-07T13:36:44.919Z,18.4
2022-10-07T13:37:47.916Z,18.7
2022-10-07T13:38:50.723Z,18.5
2022-10-07T13:39:52.603Z,18.7
2022-10-07T13:40:55.126Z,18.6
2022-10-07T13:41:57.568Z,18.6
2022-10-07T13:43:01.391Z,18.5
2022-10-07T13:44:04.854Z,18.5
2022-10-07T13:45:08.931Z,18.5
2022-10-07T13:46:13.003Z,18
2022-10-07T13:47:16.452Z,18.1
2022-10-07T13:48:19.044Z,18.4
2022-10-07T13:49:22.750Z,18.6
2022-10-07T13:50:25.919Z,18.8
2022-10-07T13:51:29.366Z,18.4
2022-10-07T13:52:33.231Z,18.2
2022-10-07T13:53:35.493Z,18.6
2022-10-07T13:54:38.765Z,18.9
2022-10-07T13:55:40.641Z,18.8
2022-10-07T13:56:44.422Z,18.3
2022-10-07T13:57:47.129Z,17.9
2022-10-07T13:58:50.659Z,18.3
2022-10-07T13:59:54.102Z,18.5
2022-10-07T14:00:58.470Z,18.3
2022-10-07T14:02:02.241Z,18.4
2022-10-07T14:03:06.349Z,18.2
2022-10-07T14:04:09.066Z,18.6
2022-10-07T14:05:12.539Z,18.2
2022-10-07T14:06:15.771Z,18.5
2022-10-07T14:07:18.300Z,18.6
2022-10-07T14:08:21.578Z,18.4
2022-10-07T14:09:24.491Z,18.1
2022-10-07T14:10:27.601Z,18
2022-10-07T14:11:30.733Z,18.3
2022-10-07T14:12:33.894Z,18.6
2022-10-07T14:13:37.235Z,18.4
2022-10-07T14:14:40.590Z,18.5
2022-10-07T14:15:44.045Z,18
2022-10-07T14:16:48.605Z,18.1
2022-10-07T14:17:52.200Z,18.2
2022-10-07T14:18:54.991Z,18.1
2022-10-07T14:19:58.148Z,17.9
2022-10-07T14:21:01.705Z,17.6
2022-10-07T14:22:04.674Z,17.5
2022-10-07T14:23:08.317Z,17.5
2022-10-07T14:24:10.867Z,17.5
2022-10-07T14:25:14.110Z,17.5
2022-10-07T14:26:16.621Z,17.3
2022-10-07T14:27:20.050Z,17.5
2022-10-07T14:28:23.161Z,17.3
2022-10-07T14:29:26.676Z,17.3
2022-10-07T14:30:30.033Z,17.2
2022-10-07T14:31:33.557Z,17.3
2022-10-07T14:32:37.670Z,17.2
2022-10-07T14:33:40.746Z,17.2
2022-10-07T14:34:43.816Z,17.2
2022-10-07T14:35:46.958Z,17.1
2022-10-07T14:36:49.953Z,17
2022-10-07T14:37:52.683Z,17
2022-10-07T14:38:55.120Z,16.9
2022-10-07T14:39:57.825Z,16.9
2022-10-07T14:41:00.694Z,17
2022-10-07T14:42:04.431Z,16.7
2022-10-07T14:43:07.155Z,16.9
2022-10-07T14:44:10.579Z,16.8
2022-10-07T14:45:13.464Z,16.8
2022-10-07T14:46:16.539Z,16.8
2022-10-07T14:47:20.092Z,16.7
2022-10-07T14:48:24.131Z,16.6
2022-10-07T14:49:26.990Z,16.7
2022-10-07T14:50:30.435Z,16.5
2022-10-07T14:51:33.319Z,16.4
2022-10-07T14:52:36.615Z,16.5
2022-10-07T14:53:41.332Z,16.6
2022-10-07T14:54:44.415Z,16.8
2022-10-07T14:55:47.090Z,16.7
2022-10-07T14:56:50.151Z,16.5
2022-10-07T14:57:53.138Z,16.4
2022-10-07T14:58:56.556Z,16.5
2022-10-07T15:00:00.040Z,16.5
2022-10-07T15:01:02.284Z,16.5
2022-10-07T15:02:05.346Z,16.5
2022-10-07T15:03:09.028Z,16.3
2022-10-07T15:04:14.065Z,16.3
2022-10-07T15:05:17.703Z,16.4
2022-10-07T15:06:20.966Z,16.4
2022-10-07T15:07:23.499Z,16.3
2022-10-07T15:08:26.363Z,16.4
2022-10-07T15:09:30.069Z,16.5
2022-10-07T15:10:33.210Z,16.4
2022-10-07T15:11:36.007Z,16.4
2022-10-07T15:12:38.323Z,16.1
2022-10-07T15:13:41.402Z,16.1
2022-10-07T15:14:45.137Z,16.3
2022-10-07T15:15:48.340Z,16.3
2022-10-07T15:16:51.325Z,16.3
2022-10-07T15:17:53.852Z,16
2022-10-07T15:18:57.226Z,16
2022-10-07T15:20:01.029Z,16.1
2022-10-07T15:21:03.852Z,16
2022-10-07T15:22:08.116Z,16.1
2022-10-07T15:23:11.132Z,16.1
2022-10-07T15:24:14.558Z,16.1
2022-10-07T15:25:17.400Z,16.2
2022-10-07T15:26:20.280Z,16.2
2022-10-07T15:27:23.614Z,15.9
2022-10-07T15:28:27.438Z,15.9
2022-10-07T15:29:30.034Z,16
2022-10-07T15:30:40.729Z,16.2
2022-10-07T15:31:43.485Z,16.2
2022-10-07T15:32:48.839Z,16.2
2022-10-07T15:33:52.765Z,16
2022-10-07T15:34:56.309Z,16.1
2022-10-07T15:36:00.404Z,16.2
2022-10-07T15:37:03.423Z,16.1
2022-10-07T15:38:06.482Z,16.1
2022-10-07T15:39:09.553Z,16
2022-10-07T15:40:12.690Z,15.8
2022-10-07T15:41:15.830Z,15.8
2022-10-07T15:42:18.921Z,15.8
2022-10-07T15:43:21.235Z,15.8
2022-10-07T15:44:23.853Z,15.9
2022-10-07T15:45:26.738Z,15.9
2022-10-07T15:46:29.851Z,15.8
2022-10-07T15:47:33.786Z,15.8
2022-10-07T15:48:36.659Z,15.7
2022-10-07T15:49:39.183Z,15.6
2022-10-07T15:50:43.038Z,15.6
2022-10-07T15:51:46.527Z,15.6
2022-10-07T15:52:50.506Z,15.5
2022-10-07T15:53:54.753Z,15.4
2022-10-07T15:54:57.960Z,15.3
2022-10-07T15:56:00.393Z,15.3
2022-10-07T15:57:03.470Z,15.3
2022-10-07T15:58:06.459Z,15.4
2022-10-07T15:59:09.267Z,15.3
2022-10-07T16:00:12.281Z,15.3
2022-10-07T16:01:15.880Z,15.2
2022-10-07T16:02:19.688Z,15.1
2022-10-07T16:03:22.784Z,15.1
2022-10-07T16:04:25.779Z,15.2
2022-10-07T16:05:28.848Z,15.2
2022-10-07T16:06:32.526Z,15.2
2022-10-07T16:07:36.165Z,15.2
2022-10-07T16:08:38.959Z,15
2022-10-07T16:09:42.051Z,15.1
2022-10-07T16:10:44.567Z,15
2022-10-07T16:11:47.088Z,15
2022-10-07T16:12:50.758Z,15
2022-10-07T16:13:53.744Z,14.8
2022-10-07T16:14:57.200Z,14.8
2022-10-07T16:16:00.660Z,14.8
2022-10-07T16:17:03.301Z,14.8
2022-10-07T16:18:06.091Z,14.7
2022-10-07T16:19:08.806Z,14.7
2022-10-07T16:20:13.505Z,14.7
2022-10-07T16:21:17.157Z,14.6
2022-10-07T16:22:21.373Z,14.6
2022-10-07T16:23:25.540Z,14.5
2022-10-07T16:24:36.798Z,14.4
2022-10-07T16:25:39.962Z,14.4
2022-10-07T16:26:42.577Z,14.4
2022-10-07T16:27:47.476Z,14.3
2022-10-07T16:28:52.078Z,14.3
2022-10-07T16:29:55.442Z,14.3
2022-10-07T16:30:58.733Z,14.2
2022-10-07T16:32:01.049Z,14.1
2022-10-07T16:33:04.144Z,14.1
2022-10-07T16:34:07.145Z,14
2022-10-07T16:35:10.140Z,14
2022-10-07T16:36:12.412Z,13.8
2022-10-07T16:37:15.184Z,13.9
2022-10-07T16:38:19.011Z,13.9
2022-10-07T16:39:23.074Z,13.8
2022-10-07T16:40:26.495Z,13.7
2022-10-07T16:41:29.457Z,13.6
2022-10-07T16:42:31.667Z,13.7
2022-10-07T16:43:34.669Z,13.6
2022-10-07T16:44:37.477Z,13.5
2022-10-07T16:45:40.186Z,13.4
2022-10-07T16:46:44.047Z,13.4
2022-10-07T16:47:49.094Z,13.5
2022-10-07T16:48:52.910Z,13.5
2022-10-07T16:49:56.598Z,13.4
2022-10-07T16:50:59.681Z,13.5
2022-10-07T16:52:02.651Z,13.4
2022-10-07T16:53:06.037Z,13.3
2022-10-07T16:54:09.269Z,13.4
2022-10-07T16:55:13.429Z,13.4
2022-10-07T16:56:16.851Z,13.3
2022-10-07T16:57:19.609Z,13.2
2022-10-07T16:58:22.287Z,13.3
2022-10-07T16:59:26.069Z,13.1
2022-10-07T17:00:29.697Z,13.2
2022-10-07T17:01:33.866Z,13.1
2022-10-07T17:02:37.283Z,13
2022-10-07T17:03:40.496Z,13
2022-10-07T17:04:43.697Z,12.8
2022-10-07T17:05:46.343Z,12.9
2022-10-07T17:06:49.238Z,12.9
2022-10-07T17:07:52.701Z,12.9
2022-10-07T17:08:54.937Z,12.8
2022-10-07T17:09:58.452Z,12.9
2022-10-07T17:11:02.631Z,12.9
2022-10-07T17:12:05.981Z,13
2022-10-07T17:13:09.110Z,12.9
2022-10-07T17:14:12.562Z,12.8
2022-10-07T17:15:15.969Z,12.9
2022-10-07T17:16:19.476Z,12.9
2022-10-07T17:17:23.309Z,12.8
2022-10-07T17:18:26.690Z,12.9
2022-10-07T17:19:29.690Z,12.9
2022-10-07T17:20:33.650Z,13
2022-10-07T17:21:37.312Z,12.9
2022-10-07T17:22:40.182Z,12.7
2022-10-07T17:23:42.423Z,12.8
2022-10-07T17:24:45.793Z,12.8
2022-10-07T17:25:49.356Z,12.6
2022-10-07T17:26:53.571Z,12.7
2022-10-07T17:27:56.473Z,12.7
2022-10-07T17:28:59.460Z,12.7
2022-10-07T17:30:01.796Z,12.8
2022-10-07T17:31:04.270Z,12.8
2022-10-07T17:32:06.950Z,12.7
2022-10-07T17:33:09.751Z,12.7
2022-10-07T17:34:13.039Z,12.6
2022-10-07T17:35:16.312Z,12.5
2022-10-07T17:36:19.929Z,12.6
2022-10-07T17:37:23.066Z,12.5
2022-10-07T17:38:25.942Z,12.4
2022-10-07T17:39:29.422Z,12.4
2022-10-07T17:40:32.870Z,12.4
2022-10-07T17:41:36.086Z,12.4
2022-10-07T17:42:39.856Z,12.4
2022-10-07T17:43:43.004Z,12.4
2022-10-07T17:44:46.100Z,12.4
2022-10-07T17:45:48.893Z,12.3
2022-10-07T17:46:53.147Z,12.3
2022-10-07T17:47:56.316Z,12.1
2022-10-07T17:48:59.120Z,12.2
2022-10-07T17:50:02.513Z,12.3
2022-10-07T17:51:05.113Z,12.2
2022-10-07T17:52:08.569Z,12.1
2022-10-07T17:53:11.663Z,12.2
2022-10-07T17:54:14.606Z,12.2
2022-10-07T17:55:18.226Z,12.1
2022-10-07T17:56:21.647Z,12.1
2022-10-07T17:57:24.739Z,12
2022-10-07T17:58:28.835Z,12
2022-10-07T17:59:31.440Z,12
2022-10-07T18:00:34.758Z,12
2022-10-07T18:01:37.506Z,11.9
2022-10-07T18:02:40.298Z,11.8
2022-10-07T18:03:43.169Z,11.8
2022-10-07T18:04:46.619Z,11.9
2022-10-07T18:05:49.441Z,11.9
2022-10-07T18:06:52.583Z,11.9
2022-10-07T18:07:55.764Z,12
2022-10-07T18:08:58.992Z,11.9
2022-10-07T18:10:01.987Z,12.1
2022-10-07T18:11:05.482Z,12.1
2022-10-07T18:12:08.654Z,12.1
2022-10-07T18:13:11.579Z,12.1
2022-10-07T18:14:15.326Z,12.1
2022-10-07T18:15:18.512Z,12.1
2022-10-07T18:16:22.119Z,12.2
2022-10-07T18:17:25.715Z,12.1
2022-10-07T18:18:28.537Z,12.1
2022-10-07T18:19:31.420Z,12.3
2022-10-07T18:20:34.098Z,12.4
2022-10-07T18:21:37.525Z,12.4
2022-10-07T18:22:40.045Z,12.3
2022-10-07T18:23:43.224Z,12.3
2022-10-07T18:24:45.942Z,12.4
2022-10-07T18:25:48.733Z,12.4
2022-10-07T18:26:51.905Z,12.5
2022-10-07T18:27:54.626Z,12.5
2022-10-07T18:28:57.829Z,12.5
2022-10-07T18:30:01.883Z,12.5
2022-10-07T18:31:13.679Z,12.5
2022-10-07T18:32:16.883Z,12.5
2022-10-07T18:33:18.914Z,12.6
2022-10-07T18:34:22.335Z,12.6
2022-10-07T18:35:25.558Z,12.6
2022-10-07T18:36:27.883Z,12.6
2022-10-07T18:37:30.786Z,12.6
2022-10-07T18:38:33.962Z,12.7
2022-10-07T18:39:36.530Z,12.7
2022-10-07T18:40:39.039Z,12.6
2022-10-07T18:41:41.638Z,12.5
2022-10-07T18:42:44.170Z,12.6
2022-10-07T18:43:47.438Z,12.7
2022-10-07T18:44:50.802Z,12.7
2022-10-07T18:45:54.747Z,12.7
2022-10-07T18:46:57.969Z,12.7
2022-10-07T18:48:01.108Z,12.7
2022-10-07T18:49:04.374Z,12.8
2022-10-07T18:50:07.697Z,12.8
2022-10-07T18:51:10.657Z,12.7
2022-10-07T18:52:14.339Z,12.7
2022-10-07T18:53:17.122Z,12.7
2022-10-07T18:54:20.028Z,12.7
2022-10-07T18:55:23.178Z,12.7
2022-10-07T18:56:25.336Z,12.8
2022-10-07T18:57:28.052Z,12.8
2022-10-07T18:58:31.562Z,12.8
2022-10-07T18:59:34.530Z,12.8
2022-10-07T19:00:38.468Z,12.9
2022-10-07T19:01:51.527Z,12.8
2022-10-07T19:02:54.615Z,12.8
2022-10-07T19:03:58.070Z,12.8
2022-10-07T19:05:00.783Z,12.8
2022-10-07T19:06:03.691Z,12.8
2022-10-07T19:07:06.758Z,12.8
2022-10-07T19:08:10.407Z,12.9
2022-10-07T19:09:13.263Z,12.9
2022-10-07T19:10:16.256Z,12.8
2022-10-07T19:11:19.602Z,12.8
2022-10-07T19:12:23.063Z,12.8
2022-10-07T19:13:25.655Z,12.8
2022-10-07T19:14:28.449Z,12.8
2022-10-07T19:15:31.891Z,12.8
2022-10-07T19:16:35.401Z,12.8
2022-10-07T19:17:39.610Z,12.8
2022-10-07T19:18:42.762Z,12.8
2022-10-07T19:19:46.754Z,12.8
2022-10-07T19:20:49.608Z,12.7
2022-10-07T19:21:52.211Z,12.7
2022-10-07T19:22:54.995Z,12.7
2022-10-07T19:23:57.156Z,12.7
2022-10-07T19:25:00.316Z,12.7
2022-10-07T19:26:03.770Z,12.7
2022-10-07T19:27:06.774Z,12.7
2022-10-07T19:28:10.137Z,12.6
2022-10-07T19:29:13.544Z,12.7
2022-10-07T19:30:16.634Z,12.6
2022-10-07T19:31:19.999Z,12.5
2022-10-07T19:32:23.845Z,12.5
2022-10-07T19:33:28.164Z,12.5
2022-10-07T19:34:30.839Z,12.5
2022-10-07T19:35:34.455Z,12.4
2022-10-07T19:36:37.523Z,12.4
2022-10-07T19:37:40.590Z,12.4
2022-10-07T19:38:43.113Z,12.4
2022-10-07T19:39:46.585Z,12.5
2022-10-07T19:40:50.587Z,12.5
2022-10-07T19:41:53.655Z,12.5
2022-10-07T19:42:56.997Z,12.4
2022-10-07T19:43:59.588Z,12.4
2022-10-07T19:45:02.398Z,12.4
2022-10-07T19:46:05.233Z,12.5
2022-10-07T19:47:08.000Z,12.4
2022-10-07T19:48:16.386Z,12.4
2022-10-07T19:49:20.407Z,12.4
2022-10-07T19:50:23.287Z,12.4
2022-10-07T19:51:25.605Z,12.4
2022-10-07T19:52:28.671Z,12.4
2022-10-07T19:53:32.089Z,12.4
2022-10-07T19:54:35.434Z,12.4
2022-10-07T19:55:38.297Z,12.3
2022-10-07T19:56:41.385Z,12.4
2022-10-07T19:57:44.207Z,12.4
2022-10-07T19:58:47.208Z,12.4
2022-10-07T19:59:50.194Z,12.4
2022-10-07T20:00:53.271Z,12.4
2022-10-07T20:02:02.474Z,12.4
2022-10-07T20:03:05.396Z,12.2
2022-10-07T20:04:08.939Z,12.4
2022-10-07T20:05:12.710Z,12.4
2022-10-07T20:06:15.240Z,12.4
2022-10-07T20:07:17.408Z,12.3
2022-10-07T20:08:20.501Z,12.3
2022-10-07T20:09:23.356Z,12.2
2022-10-07T20:10:25.879Z,12.2
2022-10-07T20:11:28.759Z,12.2
2022-10-07T20:12:32.145Z,12.1
2022-10-07T20:13:34.671Z,12.1
2022-10-07T20:14:37.817Z,12.1
2022-10-07T20:15:40.937Z,12.2
2022-10-07T20:16:44.921Z,12.1
2022-10-07T20:17:49.005Z,12.1
2022-10-07T20:18:51.244Z,12
2022-10-07T20:19:54.341Z,12.1
2022-10-07T20:20:58.422Z,12
2022-10-07T20:22:01.219Z,12.1
2022-10-07T20:23:03.926Z,12.1
2022-10-07T20:24:06.831Z,12
2022-10-07T20:25:09.994Z,12
2022-10-07T20:26:12.795Z,12
2022-10-07T20:27:15.792Z,12.1
2022-10-07T20:28:19.074Z,12
2022-10-07T20:29:26.558Z,12.1
2022-10-07T20:30:29.269Z,12
2022-10-07T20:31:32.892Z,12
2022-10-07T20:32:35.527Z,11.9
2022-10-07T20:33:37.764Z,11.9
2022-10-07T20:34:40.608Z,11.9
2022-10-07T20:35:44.135Z,11.9
2022-10-07T20:36:48.075Z,11.8
2022-10-07T20:37:51.068Z,11.8
2022-10-07T20:38:54.482Z,11.8
2022-10-07T20:39:57.574Z,11.8
2022-10-07T20:41:00.805Z,11.9
2022-10-07T20:42:03.424Z,11.8
2022-10-07T20:43:06.877Z,11.7
2022-10-07T20:44:09.685Z,11.7
2022-10-07T20:45:12.304Z,11.7
2022-10-07T20:46:15.710Z,11.7
2022-10-07T20:47:19.131Z,11.7
2022-10-07T20:48:21.642Z,11.7
2022-10-07T20:49:24.175Z,11.7
2022-10-07T20:50:27.243Z,11.7
2022-10-07T20:51:30.673Z,11.7
2022-10-07T20:52:34.424Z,11.6
2022-10-07T20:53:36.742Z,11.6
2022-10-07T20:54:39.839Z,11.6
2022-10-07T20:55:42.357Z,11.6
2022-10-07T20:56:45.703Z,11.6
2022-10-07T20:57:48.663Z,11.6
2022-10-07T20:58:50.820Z,11.6
2022-10-07T20:59:53.071Z,11.6
2022-10-07T21:00:56.000Z,11.6
2022-10-07T21:01:59.044Z,11.5
2022-10-07T21:03:02.649Z,11.6
2022-10-07T21:04:05.296Z,11.5
2022-10-07T21:05:08.454Z,11.6
2022-10-07T21:06:11.802Z,11.5
2022-10-07T21:07:14.982Z,11.5
2022-10-07T21:08:18.789Z,11.5
2022-10-07T21:09:21.872Z,11.5
2022-10-07T21:10:24.903Z,11.6
2022-10-07T21:11:28.303Z,11.6
2022-10-07T21:12:31.377Z,11.6
2022-10-07T21:13:33.894Z,11.6
2022-10-07T21:14:36.141Z,11.5
2022-10-07T21:15:39.204Z,11.5
2022-10-07T21:16:42.877Z,11.5
2022-10-07T21:17:45.701Z,11.5
2022-10-07T21:18:48.131Z,11.5
2022-10-07T21:19:51.203Z,11.4
2022-10-07T21:20:58.449Z,11.4
2022-10-07T21:22:01.805Z,11.4
2022-10-07T21:23:05.678Z,11.4
2022-10-07T21:24:09.432Z,11.4
2022-10-07T21:25:12.251Z,11.4
2022-10-07T21:26:14.959Z,11.4
2022-10-07T21:27:18.390Z,11.3
2022-10-07T21:28:21.765Z,11.4
2022-10-07T21:29:25.427Z,11.3
2022-10-07T21:30:28.719Z,11.3
2022-10-07T21:31:31.906Z,11.3
2022-10-07T21:32:35.180Z,11.2
2022-10-07T21:33:37.896Z,11.3
2022-10-07T21:34:40.152Z,11.3
2022-10-07T21:35:43.376Z,11.3
2022-10-07T21:36:54.439Z,11.2
2022-10-07T21:37:57.591Z,11.2
2022-10-07T21:39:00.684Z,11.2
2022-10-07T21:40:04.180Z,11.1
2022-10-07T21:41:07.324Z,11.2
2022-10-07T21:42:10.678Z,11.1
2022-10-07T21:43:14.130Z,11.1
2022-10-07T21:44:17.831Z,11
2022-10-07T21:45:21.078Z,11.1
2022-10-07T21:46:24.196Z,11.2
2022-10-07T21:47:27.317Z,11.2
2022-10-07T21:48:30.134Z,11.2
2022-10-07T21:49:33.568Z,11.2
2022-10-07T21:50:37.099Z,11.1
2022-10-07T21:51:40.299Z,10.9
2022-10-07T21:52:43.962Z,11
2022-10-07T21:53:47.173Z,10.9
2022-10-07T21:54:50.670Z,11
2022-10-07T21:55:54.193Z,11
2022-10-07T21:56:56.623Z,11
2022-10-07T21:57:59.020Z,11.1
2022-10-07T21:59:02.155Z,11
2022-10-07T22:00:05.529Z,10.9
2022-10-07T22:01:09.084Z,11
2022-10-07T22:02:12.875Z,11
2022-10-07T22:03:16.702Z,10.9
2022-10-07T22:04:19.530Z,11
2022-10-07T22:05:22.672Z,11
2022-10-07T22:06:26.131Z,11
2022-10-07T22:07:28.754Z,11.1
2022-10-07T22:08:32.199Z,11
2022-10-07T22:09:34.999Z,11.1
2022-10-07T22:10:38.262Z,11
2022-10-07T22:11:41.738Z,10.9
2022-10-07T22:12:45.629Z,10.9
2022-10-07T22:13:49.137Z,10.9
2022-10-07T22:14:51.935Z,11
2022-10-07T22:15:55.988Z,11
2022-10-07T22:16:58.960Z,10.9
2022-10-07T22:18:01.675Z,10.9
2022-10-07T22:19:04.471Z,10.9
2022-10-07T22:20:07.463Z,10.9
2022-10-07T22:21:11.187Z,10.9
2022-10-07T22:22:14.057Z,10.9
2022-10-07T22:23:17.198Z,10.9
2022-10-07T22:24:20.185Z,11
2022-10-07T22:25:22.889Z,10.9
2022-10-07T22:26:26.359Z,10.9
2022-10-07T22:27:30.119Z,10.9
2022-10-07T22:28:33.611Z,10.8
2022-10-07T22:29:36.529Z,10.8
2022-10-07T22:30:39.902Z,10.8
2022-10-07T22:31:42.884Z,10.8
2022-10-07T22:32:47.083Z,10.9
2022-10-07T22:33:51.170Z,10.9
2022-10-07T22:34:54.543Z,10.8
2022-10-07T22:35:57.071Z,10.9
2022-10-07T22:36:59.418Z,10.8
2022-10-07T22:38:02.986Z,10.9
2022-10-07T22:39:06.439Z,10.8
2022-10-07T22:40:09.433Z,10.8
2022-10-07T22:41:12.979Z,10.8
2022-10-07T22:42:16.182Z,10.8
2022-10-07T22:43:20.198Z,10.8
2022-10-07T22:44:23.378Z,10.8
2022-10-07T22:45:25.899Z,10.8
2022-10-07T22:46:29.656Z,10.8
2022-10-07T22:47:32.550Z,10.8
2022-10-07T22:48:35.626Z,10.7
2022-10-07T22:49:38.164Z,10.8
2022-10-07T22:50:40.884Z,10.8
2022-10-07T22:51:43.986Z,10.8
2022-10-07T22:52:48.751Z,10.8
2022-10-07T22:53:52.451Z,10.8
2022-10-07T22:54:55.258Z,10.8
2022-10-07T22:55:58.253Z,10.8
2022-10-07T22:57:00.717Z,10.8
2022-10-07T22:58:04.190Z,10.9
2022-10-07T22:59:07.957Z,10.8
2022-10-07T23:00:10.757Z,10.8
2022-10-07T23:01:13.927Z,10.8
2022-10-07T23:02:17.011Z,10.8
2022-10-07T23:03:21.095Z,10.8
2022-10-07T23:04:23.528Z,10.9
2022-10-07T23:05:26.687Z,10.8
2022-10-07T23:06:29.478Z,10.8
2022-10-07T23:07:32.576Z,10.8
2022-10-07T23:08:35.789Z,10.8
2022-10-07T23:09:39.368Z,10.8
2022-10-07T23:10:42.237Z,10.7
2022-10-07T23:11:44.858Z,10.6
2022-10-07T23:12:50.149Z,10.7
2022-10-07T23:13:54.101Z,10.6
2022-10-07T23:14:57.840Z,10.6
2022-10-07T23:16:01.084Z,10.6
2022-10-07T23:17:05.086Z,10.5
2022-10-07T23:18:07.961Z,10.6
2022-10-07T23:19:11.025Z,10.6
2022-10-07T23:20:13.815Z,10.6
2022-10-07T23:21:17.268Z,10.6
2022-10-07T23:22:20.708Z,10.6
2022-10-07T23:23:23.276Z,10.4
2022-10-07T23:24:26.667Z,10.5
2022-10-07T23:25:30.118Z,10.5
2022-10-07T23:26:32.484Z,10.5
2022-10-07T23:27:36.155Z,10.4
2022-10-07T23:28:38.928Z,10.5
2022-10-07T23:29:42.508Z,10.4
2022-10-07T23:30:46.933Z,10.5
2022-10-07T23:31:49.064Z,10.4
2022-10-07T23:32:52.164Z,10.4
2022-10-07T23:33:55.320Z,10.4
2022-10-07T23:34:58.232Z,10.4
2022-10-07T23:36:01.398Z,10.4
2022-10-07T23:37:04.191Z,10.4
2022-10-07T23:38:07.207Z,10.3
2022-10-07T23:39:10.284Z,10.3
2022-10-07T23:40:12.980Z,10.3
2022-10-07T23:41:16.079Z,10.3
2022-10-07T23:42:19.709Z,10.3
2022-10-07T23:43:22.590Z,10.4
2022-10-07T23:44:26.601Z,10.4
2022-10-07T23:45:30.032Z,10.2
2022-10-07T23:46:34.522Z,10.2
2022-10-07T23:47:37.645Z,10.3
2022-10-07T23:48:41.375Z,10.3
2022-10-07T23:49:44.675Z,10.3
2022-10-07T23:50:47.465Z,10.2
2022-10-07T23:51:49.984Z,10.2
2022-10-07T23:52:52.583Z,10.1
2022-10-07T23:53:55.306Z,10.1
2022-10-07T23:54:58.097Z,10.1
2022-10-07T23:56:01.172Z,10.1
2022-10-07T23:57:03.615Z,10.1
2022-10-07T23:58:06.406Z,10
2022-10-07T23:59:09.127Z,10.1
